Terminal Aerodrome Forecast
Issued by NWS

Home | Current Version | Previous Version | Text Only | Print | Product List | Glossary Off
Versions: 1 2 3 4 5 6 7 8 9 10 11 12 13 14 15

384
FTUS43 KGRB 301720
TAFATW
TAF
KATW 301720Z 3018/0118 07011G18KT P6SM SCT030 BKN100
     FM302000 06015G25KT P6SM SCT030 BKN070
     FM010100 04012KT P6SM -RA BKN040 WS010/06030KT
      TEMPO 0103/0107 4SM -RA
     FM010900 02010KT 4SM -RA BKN025 WS010/06030KT
     FM011300 04013G24KT P6SM BKN035
      TEMPO 0113/0116 5SM -RA=

USA.gov is the U.S. government's official web portal to all federal, state and local government web resources and services.